Terminal Aerodrome Forecast
Issued by NWS

Home | Current Version | Previous Version | Text Only | Print | Product List | Glossary On
Versions: 1 2 3 4 5 6 7 8 9 10 11 12 13 14
000
FTUS43 KICT 111700
TAFCNU
TAF
KCNU 111720Z 1118/1218 19015G21KT P6SM BKN120
     FM120100 17010KT P6SM SKC
     FM121400 20015G25KT P6SM SKC=

USA.gov is the U.S. government's official web portal to all federal, state and local government web resources and services.